sensor_id;sensor_type;location;lat;lon;timestamp;P1;durP1;ratioP1;P2;durP2;ratioP2
31482;SDS011;18103;52.246;8.052;2022-10-31T00:00:13;31.60;;;12.17;;
31482;SDS011;18103;52.246;8.052;2022-10-31T00:02:39;23.03;;;11.73;;
31482;SDS011;18103;52.246;8.052;2022-10-31T00:05:04;22.63;;;12.20;;
31482;SDS011;18103;52.246;8.052;2022-10-31T00:07:30;29.43;;;12.97;;
31482;SDS011;18103;52.246;8.052;2022-10-31T00:09:55;28.00;;;12.83;;
31482;SDS011;18103;52.246;8.052;2022-10-31T00:12:20;33.30;;;12.73;;
31482;SDS011;18103;52.246;8.052;2022-10-31T00:14:45;25.00;;;11.90;;
31482;SDS011;18103;52.246;8.052;2022-10-31T00:17:11;38.17;;;12.47;;
31482;SDS011;18103;52.246;8.052;2022-10-31T00:19:36;27.57;;;12.13;;
31482;SDS011;18103;52.246;8.052;2022-10-31T00:22:01;26.60;;;11.90;;
31482;SDS011;18103;52.246;8.052;2022-10-31T00:24:27;28.77;;;11.83;;
31482;SDS011;18103;52.246;8.052;2022-10-31T00:26:52;29.13;;;11.67;;
31482;SDS011;18103;52.246;8.052;2022-10-31T00:29:17;25.13;;;11.13;;
31482;SDS011;18103;52.246;8.052;2022-10-31T00:31:43;24.67;;;11.27;;
31482;SDS011;18103;52.246;8.052;2022-10-31T00:34:08;29.03;;;12.73;;
31482;SDS011;18103;52.246;8.052;2022-10-31T00:36:33;29.67;;;12.30;;
31482;SDS011;18103;52.246;8.052;2022-10-31T00:38:59;22.20;;;11.47;;
31482;SDS011;18103;52.246;8.052;2022-10-31T00:41:24;29.17;;;12.20;;
31482;SDS011;18103;52.246;8.052;2022-10-31T00:43:49;25.13;;;12.67;;
31482;SDS011;18103;52.246;8.052;2022-10-31T00:46:15;34.23;;;13.40;;
31482;SDS011;18103;52.246;8.052;2022-10-31T00:48:41;34.77;;;13.73;;
31482;SDS011;18103;52.246;8.052;2022-10-31T00:51:07;33.87;;;12.90;;
31482;SDS011;18103;52.246;8.052;2022-10-31T00:53:32;34.43;;;14.13;;
31482;SDS011;18103;52.246;8.052;2022-10-31T00:56:00;28.47;;;13.30;;
31482;SDS011;18103;52.246;8.052;2022-10-31T00:58:26;33.17;;;15.27;;
31482;SDS011;18103;52.246;8.052;2022-10-31T01:00:51;30.73;;;13.23;;
31482;SDS011;18103;52.246;8.052;2022-10-31T01:03:20;31.43;;;13.17;;
31482;SDS011;18103;52.246;8.052;2022-10-31T01:05:54;30.17;;;13.17;;
31482;SDS011;18103;52.246;8.052;2022-10-31T01:08:31;27.43;;;12.10;;
31482;SDS011;18103;52.246;8.052;2022-10-31T01:13:28;31.50;;;14.27;;
31482;SDS011;18103;52.246;8.052;2022-10-31T01:15:54;23.87;;;13.00;;
31482;SDS011;18103;52.246;8.052;2022-10-31T01:18:20;30.27;;;13.70;;
31482;SDS011;18103;52.246;8.052;2022-10-31T01:20:46;28.87;;;13.20;;
31482;SDS011;18103;52.246;8.052;2022-10-31T01:23:11;29.17;;;14.53;;
31482;SDS011;18103;52.246;8.052;2022-10-31T01:25:37;30.57;;;14.03;;
31482;SDS011;18103;52.246;8.052;2022-10-31T01:28:02;25.27;;;13.00;;
31482;SDS011;18103;52.246;8.052;2022-10-31T01:30:27;24.83;;;13.27;;
31482;SDS011;18103;52.246;8.052;2022-10-31T01:32:53;30.20;;;12.37;;
31482;SDS011;18103;52.246;8.052;2022-10-31T01:35:18;28.97;;;12.63;;
31482;SDS011;18103;52.246;8.052;2022-10-31T01:37:43;30.03;;;13.67;;
31482;SDS011;18103;52.246;8.052;2022-10-31T01:40:09;27.57;;;13.83;;
31482;SDS011;18103;52.246;8.052;2022-10-31T01:42:34;29.83;;;13.80;;
31482;SDS011;18103;52.246;8.052;2022-10-31T01:45:00;24.37;;;13.00;;
31482;SDS011;18103;52.246;8.052;2022-10-31T01:47:33;30.93;;;14.47;;
31482;SDS011;18103;52.246;8.052;2022-10-31T01:53:04;31.33;;;13.37;;
31482;SDS011;18103;52.246;8.052;2022-10-31T01:55:32;29.27;;;12.53;;
31482;SDS011;18103;52.246;8.052;2022-10-31T01:58:03;28.63;;;12.90;;
31482;SDS011;18103;52.246;8.052;2022-10-31T02:00:32;38.50;;;14.10;;
31482;SDS011;18103;52.246;8.052;2022-10-31T02:02:57;30.17;;;14.00;;
31482;SDS011;18103;52.246;8.052;2022-10-31T02:05:24;30.73;;;13.27;;
31482;SDS011;18103;52.246;8.052;2022-10-31T02:10:32;26.60;;;12.97;;
31482;SDS011;18103;52.246;8.052;2022-10-31T02:13:01;34.00;;;13.70;;
31482;SDS011;18103;52.246;8.052;2022-10-31T02:15:28;31.50;;;13.27;;
31482;SDS011;18103;52.246;8.052;2022-10-31T02:17:56;24.63;;;12.23;;
31482;SDS011;18103;52.246;8.052;2022-10-31T02:20:22;25.20;;;13.30;;
31482;SDS011;18103;52.246;8.052;2022-10-31T02:23:14;26.60;;;12.57;;
31482;SDS011;18103;52.246;8.052;2022-10-31T02:28:41;31.77;;;11.77;;
31482;SDS011;18103;52.246;8.052;2022-10-31T02:34:17;21.20;;;11.23;;
31482;SDS011;18103;52.246;8.052;2022-10-31T02:37:02;26.33;;;12.77;;
31482;SDS011;18103;52.246;8.052;2022-10-31T02:40:01;31.03;;;13.03;;
31482;SDS011;18103;52.246;8.052;2022-10-31T02:42:46;23.63;;;13.17;;
31482;SDS011;18103;52.246;8.052;2022-10-31T02:45:29;39.87;;;13.77;;
31482;SDS011;18103;52.246;8.052;2022-10-31T02:48:00;24.23;;;12.87;;
31482;SDS011;18103;52.246;8.052;2022-10-31T02:50:33;27.23;;;13.40;;
31482;SDS011;18103;52.246;8.052;2022-10-31T02:53:02;23.83;;;12.90;;
31482;SDS011;18103;52.246;8.052;2022-10-31T02:57:54;28.03;;;13.13;;
31482;SDS011;18103;52.246;8.052;2022-10-31T03:00:26;30.90;;;15.07;;
31482;SDS011;18103;52.246;8.052;2022-10-31T03:05:26;34.03;;;14.67;;
31482;SDS011;18103;52.246;8.052;2022-10-31T03:08:03;28.47;;;13.77;;
31482;SDS011;18103;52.246;8.052;2022-10-31T03:10:45;28.23;;;13.93;;
31482;SDS011;18103;52.246;8.052;2022-10-31T03:13:29;35.73;;;14.17;;
31482;SDS011;18103;52.246;8.052;2022-10-31T03:21:55;26.20;;;12.40;;
31482;SDS011;18103;52.246;8.052;2022-10-31T03:24:27;32.10;;;14.30;;
31482;SDS011;18103;52.246;8.052;2022-10-31T03:26:57;37.73;;;14.37;;
31482;SDS011;18103;52.246;8.052;2022-10-31T03:29:26;36.67;;;14.30;;
31482;SDS011;18103;52.246;8.052;2022-10-31T03:31:57;31.97;;;14.50;;
31482;SDS011;18103;52.246;8.052;2022-10-31T03:34:25;27.90;;;14.17;;
31482;SDS011;18103;52.246;8.052;2022-10-31T03:36:53;33.63;;;13.60;;
31482;SDS011;18103;52.246;8.052;2022-10-31T03:39:21;32.87;;;14.43;;
31482;SDS011;18103;52.246;8.052;2022-10-31T03:42:34;36.83;;;14.77;;
31482;SDS011;18103;52.246;8.052;2022-10-31T03:44:40;32.27;;;13.47;;
31482;SDS011;18103;52.246;8.052;2022-10-31T03:47:10;29.33;;;14.10;;
31482;SDS011;18103;52.246;8.052;2022-10-31T03:49:36;26.23;;;12.80;;
31482;SDS011;18103;52.246;8.052;2022-10-31T03:55:07;31.63;;;14.53;;
31482;SDS011;18103;52.246;8.052;2022-10-31T03:57:39;29.67;;;14.00;;
31482;SDS011;18103;52.246;8.052;2022-10-31T04:00:12;30.23;;;13.63;;
31482;SDS011;18103;52.246;8.052;2022-10-31T04:02:45;33.90;;;13.37;;
31482;SDS011;18103;52.246;8.052;2022-10-31T04:05:15;33.87;;;13.77;;
31482;SDS011;18103;52.246;8.052;2022-10-31T04:07:43;38.07;;;14.23;;
31482;SDS011;18103;52.246;8.052;2022-10-31T04:10:12;33.67;;;14.33;;
31482;SDS011;18103;52.246;8.052;2022-10-31T04:12:43;30.20;;;13.33;;
31482;SDS011;18103;52.246;8.052;2022-10-31T04:15:14;31.97;;;14.10;;
31482;SDS011;18103;52.246;8.052;2022-10-31T04:17:40;25.57;;;13.20;;
31482;SDS011;18103;52.246;8.052;2022-10-31T04:20:09;32.80;;;13.80;;
31482;SDS011;18103;52.246;8.052;2022-10-31T04:22:34;26.87;;;12.07;;
31482;SDS011;18103;52.246;8.052;2022-10-31T04:25:00;33.57;;;13.40;;
31482;SDS011;18103;52.246;8.052;2022-10-31T04:27:25;29.67;;;14.20;;
31482;SDS011;18103;52.246;8.052;2022-10-31T04:29:50;26.17;;;13.73;;
31482;SDS011;18103;52.246;8.052;2022-10-31T04:32:16;34.03;;;13.60;;
31482;SDS011;18103;52.246;8.052;2022-10-31T04:34:41;27.70;;;14.10;;
31482;SDS011;18103;52.246;8.052;2022-10-31T04:37:06;29.93;;;14.00;;
31482;SDS011;18103;52.246;8.052;2022-10-31T04:39:35;34.00;;;14.90;;
31482;SDS011;18103;52.246;8.052;2022-10-31T04:42:00;35.87;;;14.57;;
31482;SDS011;18103;52.246;8.052;2022-10-31T04:44:26;30.60;;;14.37;;
31482;SDS011;18103;52.246;8.052;2022-10-31T04:46:51;42.10;;;13.97;;
31482;SDS011;18103;52.246;8.052;2022-10-31T04:49:16;32.50;;;14.33;;
31482;SDS011;18103;52.246;8.052;2022-10-31T04:51:42;35.43;;;15.07;;
31482;SDS011;18103;52.246;8.052;2022-10-31T04:54:07;34.87;;;14.37;;
31482;SDS011;18103;52.246;8.052;2022-10-31T04:56:32;26.87;;;14.60;;
31482;SDS011;18103;52.246;8.052;2022-10-31T04:58:58;30.97;;;13.77;;
31482;SDS011;18103;52.246;8.052;2022-10-31T05:01:23;36.30;;;14.43;;
31482;SDS011;18103;52.246;8.052;2022-10-31T05:03:48;31.67;;;15.00;;
31482;SDS011;18103;52.246;8.052;2022-10-31T05:06:14;26.83;;;14.47;;
31482;SDS011;18103;52.246;8.052;2022-10-31T05:08:42;32.20;;;14.20;;
31482;SDS011;18103;52.246;8.052;2022-10-31T05:11:07;29.97;;;14.10;;
31482;SDS011;18103;52.246;8.052;2022-10-31T05:13:33;28.63;;;14.10;;
31482;SDS011;18103;52.246;8.052;2022-10-31T05:16:01;29.17;;;14.10;;
31482;SDS011;18103;52.246;8.052;2022-10-31T05:18:28;33.03;;;14.87;;
31482;SDS011;18103;52.246;8.052;2022-10-31T05:20:53;28.03;;;12.83;;
31482;SDS011;18103;52.246;8.052;2022-10-31T05:23:18;33.30;;;14.43;;
31482;SDS011;18103;52.246;8.052;2022-10-31T05:25:44;28.40;;;14.53;;
31482;SDS011;18103;52.246;8.052;2022-10-31T05:28:09;29.90;;;12.70;;
31482;SDS011;18103;52.246;8.052;2022-10-31T05:30:37;30.50;;;13.50;;
31482;SDS011;18103;52.246;8.052;2022-10-31T05:33:02;30.77;;;14.40;;
31482;SDS011;18103;52.246;8.052;2022-10-31T05:35:32;28.57;;;14.37;;
31482;SDS011;18103;52.246;8.052;2022-10-31T05:37:58;30.60;;;13.73;;
31482;SDS011;18103;52.246;8.052;2022-10-31T05:40:24;28.00;;;15.00;;
31482;SDS011;18103;52.246;8.052;2022-10-31T05:42:51;30.40;;;13.80;;
31482;SDS011;18103;52.246;8.052;2022-10-31T05:45:17;40.00;;;14.00;;
31482;SDS011;18103;52.246;8.052;2022-10-31T05:47:54;27.80;;;14.17;;
31482;SDS011;18103;52.246;8.052;2022-10-31T05:50:21;28.23;;;12.97;;
31482;SDS011;18103;52.246;8.052;2022-10-31T05:52:47;23.93;;;12.77;;
31482;SDS011;18103;52.246;8.052;2022-10-31T05:55:18;26.17;;;11.90;;
31482;SDS011;18103;52.246;8.052;2022-10-31T05:57:44;23.30;;;13.73;;
31482;SDS011;18103;52.246;8.052;2022-10-31T06:00:12;31.93;;;13.60;;
31482;SDS011;18103;52.246;8.052;2022-10-31T06:02:40;31.17;;;13.67;;
31482;SDS011;18103;52.246;8.052;2022-10-31T06:05:06;31.87;;;13.70;;
31482;SDS011;18103;52.246;8.052;2022-10-31T06:07:32;30.57;;;14.00;;
31482;SDS011;18103;52.246;8.052;2022-10-31T06:09:59;28.77;;;13.17;;
31482;SDS011;18103;52.246;8.052;2022-10-31T06:12:25;29.53;;;13.23;;
31482;SDS011;18103;52.246;8.052;2022-10-31T06:14:53;25.43;;;13.53;;
31482;SDS011;18103;52.246;8.052;2022-10-31T06:17:18;26.60;;;12.70;;
31482;SDS011;18103;52.246;8.052;2022-10-31T06:19:43;27.03;;;12.83;;
31482;SDS011;18103;52.246;8.052;2022-10-31T06:22:08;28.33;;;12.70;;
31482;SDS011;18103;52.246;8.052;2022-10-31T06:24:36;27.90;;;13.03;;
31482;SDS011;18103;52.246;8.052;2022-10-31T06:27:02;24.07;;;12.93;;
31482;SDS011;18103;52.246;8.052;2022-10-31T06:29:27;28.87;;;12.40;;
31482;SDS011;18103;52.246;8.052;2022-10-31T06:31:52;29.20;;;13.67;;
31482;SDS011;18103;52.246;8.052;2022-10-31T06:34:18;26.17;;;13.50;;
31482;SDS011;18103;52.246;8.052;2022-10-31T06:36:43;33.30;;;13.00;;
31482;SDS011;18103;52.246;8.052;2022-10-31T06:39:11;29.37;;;12.87;;
31482;SDS011;18103;52.246;8.052;2022-10-31T06:41:36;25.37;;;12.97;;
31482;SDS011;18103;52.246;8.052;2022-10-31T06:44:02;24.50;;;12.27;;
31482;SDS011;18103;52.246;8.052;2022-10-31T06:46:27;30.07;;;14.07;;
31482;SDS011;18103;52.246;8.052;2022-10-31T06:48:53;29.67;;;13.20;;
31482;SDS011;18103;52.246;8.052;2022-10-31T06:51:18;24.50;;;12.77;;
31482;SDS011;18103;52.246;8.052;2022-10-31T06:53:43;33.13;;;13.07;;
31482;SDS011;18103;52.246;8.052;2022-10-31T06:56:09;31.77;;;13.23;;
31482;SDS011;18103;52.246;8.052;2022-10-31T06:58:34;24.27;;;12.97;;
31482;SDS011;18103;52.246;8.052;2022-10-31T07:01:00;26.10;;;12.80;;
31482;SDS011;18103;52.246;8.052;2022-10-31T07:03:25;23.57;;;12.27;;
31482;SDS011;18103;52.246;8.052;2022-10-31T07:05:51;30.53;;;12.83;;
31482;SDS011;18103;52.246;8.052;2022-10-31T07:08:19;25.00;;;12.70;;
31482;SDS011;18103;52.246;8.052;2022-10-31T07:10:50;22.77;;;12.60;;
31482;SDS011;18103;52.246;8.052;2022-10-31T07:13:17;20.53;;;11.97;;
31482;SDS011;18103;52.246;8.052;2022-10-31T07:15:49;24.50;;;11.67;;
31482;SDS011;18103;52.246;8.052;2022-10-31T07:18:15;26.03;;;11.37;;
31482;SDS011;18103;52.246;8.052;2022-10-31T07:20:40;28.33;;;12.83;;
31482;SDS011;18103;52.246;8.052;2022-10-31T07:23:11;25.17;;;12.50;;
31482;SDS011;18103;52.246;8.052;2022-10-31T07:25:37;30.13;;;14.00;;
31482;SDS011;18103;52.246;8.052;2022-10-31T07:28:06;27.83;;;13.67;;
31482;SDS011;18103;52.246;8.052;2022-10-31T07:30:32;35.57;;;14.63;;
31482;SDS011;18103;52.246;8.052;2022-10-31T07:32:58;29.53;;;15.13;;
31482;SDS011;18103;52.246;8.052;2022-10-31T07:35:24;29.77;;;13.60;;
31482;SDS011;18103;52.246;8.052;2022-10-31T07:37:51;33.90;;;14.10;;
31482;SDS011;18103;52.246;8.052;2022-10-31T07:40:17;30.53;;;14.17;;
31482;SDS011;18103;52.246;8.052;2022-10-31T07:42:46;25.23;;;13.47;;
31482;SDS011;18103;52.246;8.052;2022-10-31T07:45:15;30.37;;;14.80;;
31482;SDS011;18103;52.246;8.052;2022-10-31T07:47:42;31.47;;;14.83;;
31482;SDS011;18103;52.246;8.052;2022-10-31T07:50:12;35.93;;;14.00;;
31482;SDS011;18103;52.246;8.052;2022-10-31T07:52:39;28.20;;;14.10;;
31482;SDS011;18103;52.246;8.052;2022-10-31T07:55:04;33.03;;;13.93;;
31482;SDS011;18103;52.246;8.052;2022-10-31T07:57:30;30.93;;;15.23;;
31482;SDS011;18103;52.246;8.052;2022-10-31T07:59:56;26.07;;;14.67;;
31482;SDS011;18103;52.246;8.052;2022-10-31T08:02:21;29.30;;;13.70;;
31482;SDS011;18103;52.246;8.052;2022-10-31T08:04:47;27.53;;;12.97;;
31482;SDS011;18103;52.246;8.052;2022-10-31T08:07:13;27.00;;;12.97;;
31482;SDS011;18103;52.246;8.052;2022-10-31T08:09:38;22.50;;;12.60;;
31482;SDS011;18103;52.246;8.052;2022-10-31T08:12:04;23.53;;;12.20;;
31482;SDS011;18103;52.246;8.052;2022-10-31T08:14:30;21.93;;;12.47;;
31482;SDS011;18103;52.246;8.052;2022-10-31T08:16:59;22.87;;;11.70;;
31482;SDS011;18103;52.246;8.052;2022-10-31T08:19:25;21.63;;;12.00;;
31482;SDS011;18103;52.246;8.052;2022-10-31T08:21:50;21.33;;;10.67;;
31482;SDS011;18103;52.246;8.052;2022-10-31T08:24:17;19.57;;;11.27;;
31482;SDS011;18103;52.246;8.052;2022-10-31T08:26:42;18.67;;;11.20;;
31482;SDS011;18103;52.246;8.052;2022-10-31T08:29:08;18.80;;;11.63;;
31482;SDS011;18103;52.246;8.052;2022-10-31T08:31:33;22.80;;;12.13;;
31482;SDS011;18103;52.246;8.052;2022-10-31T08:33:59;23.43;;;12.20;;
31482;SDS011;18103;52.246;8.052;2022-10-31T08:36:24;25.43;;;11.50;;
31482;SDS011;18103;52.246;8.052;2022-10-31T08:38:49;20.30;;;11.57;;
31482;SDS011;18103;52.246;8.052;2022-10-31T08:41:15;27.40;;;12.63;;
31482;SDS011;18103;52.246;8.052;2022-10-31T08:43:40;19.17;;;11.97;;
31482;SDS011;18103;52.246;8.052;2022-10-31T08:46:05;27.80;;;13.20;;
31482;SDS011;18103;52.246;8.052;2022-10-31T08:48:34;20.90;;;12.13;;
31482;SDS011;18103;52.246;8.052;2022-10-31T08:50:59;26.23;;;13.07;;
31482;SDS011;18103;52.246;8.052;2022-10-31T08:53:25;29.60;;;13.30;;
31482;SDS011;18103;52.246;8.052;2022-10-31T08:55:53;29.80;;;14.23;;
31482;SDS011;18103;52.246;8.052;2022-10-31T08:58:20;28.20;;;13.90;;
31482;SDS011;18103;52.246;8.052;2022-10-31T09:00:47;26.83;;;14.00;;
31482;SDS011;18103;52.246;8.052;2022-10-31T09:03:23;25.67;;;14.23;;
31482;SDS011;18103;52.246;8.052;2022-10-31T09:05:50;26.90;;;13.57;;
31482;SDS011;18103;52.246;8.052;2022-10-31T09:08:19;27.87;;;14.80;;
31482;SDS011;18103;52.246;8.052;2022-10-31T09:10:47;25.77;;;13.87;;
31482;SDS011;18103;52.246;8.052;2022-10-31T09:13:14;29.57;;;14.20;;
31482;SDS011;18103;52.246;8.052;2022-10-31T09:15:41;23.77;;;13.80;;
31482;SDS011;18103;52.246;8.052;2022-10-31T09:18:08;26.37;;;12.93;;
31482;SDS011;18103;52.246;8.052;2022-10-31T09:20:35;21.80;;;13.13;;
31482;SDS011;18103;52.246;8.052;2022-10-31T09:23:03;17.30;;;11.37;;
31482;SDS011;18103;52.246;8.052;2022-10-31T09:25:35;22.07;;;12.43;;
31482;SDS011;18103;52.246;8.052;2022-10-31T09:28:01;23.47;;;13.13;;
31482;SDS011;18103;52.246;8.052;2022-10-31T09:30:29;23.60;;;13.13;;
31482;SDS011;18103;52.246;8.052;2022-10-31T09:33:00;29.27;;;14.20;;
31482;SDS011;18103;52.246;8.052;2022-10-31T09:35:27;25.73;;;12.93;;
31482;SDS011;18103;52.246;8.052;2022-10-31T09:37:54;29.60;;;13.37;;
31482;SDS011;18103;52.246;8.052;2022-10-31T09:40:46;28.40;;;13.50;;
31482;SDS011;18103;52.246;8.052;2022-10-31T09:46:33;35.93;;;13.80;;
31482;SDS011;18103;52.246;8.052;2022-10-31T09:52:00;31.43;;;14.40;;
31482;SDS011;18103;52.246;8.052;2022-10-31T09:57:19;33.20;;;15.70;;
31482;SDS011;18103;52.246;8.052;2022-10-31T09:59:52;29.87;;;15.07;;
31482;SDS011;18103;52.246;8.052;2022-10-31T10:02:21;28.33;;;14.67;;
31482;SDS011;18103;52.246;8.052;2022-10-31T10:05:03;34.40;;;13.67;;
31482;SDS011;18103;52.246;8.052;2022-10-31T10:10:26;30.27;;;12.93;;
31482;SDS011;18103;52.246;8.052;2022-10-31T10:13:02;31.47;;;13.83;;
31482;SDS011;18103;52.246;8.052;2022-10-31T10:15:50;24.90;;;12.90;;
31482;SDS011;18103;52.246;8.052;2022-10-31T10:27:23;22.87;;;10.67;;
31482;SDS011;18103;52.246;8.052;2022-10-31T10:30:07;19.33;;;9.20;;
31482;SDS011;18103;52.246;8.052;2022-10-31T10:35:47;33.40;;;10.77;;
31482;SDS011;18103;52.246;8.052;2022-10-31T10:41:18;18.83;;;8.53;;
31482;SDS011;18103;52.246;8.052;2022-10-31T10:43:48;22.27;;;9.10;;
31482;SDS011;18103;52.246;8.052;2022-10-31T10:46:38;24.27;;;9.73;;
31482;SDS011;18103;52.246;8.052;2022-10-31T10:49:37;22.07;;;9.63;;
31482;SDS011;18103;52.246;8.052;2022-10-31T11:00:11;14.87;;;8.20;;
31482;SDS011;18103;52.246;8.052;2022-10-31T11:02:58;21.03;;;9.53;;
31482;SDS011;18103;52.246;8.052;2022-10-31T11:07:53;24.67;;;9.37;;
31482;SDS011;18103;52.246;8.052;2022-10-31T11:10:21;19.70;;;8.43;;
31482;SDS011;18103;52.246;8.052;2022-10-31T11:18:24;21.23;;;9.60;;
31482;SDS011;18103;52.246;8.052;2022-10-31T11:20:53;18.90;;;8.67;;
31482;SDS011;18103;52.246;8.052;2022-10-31T11:23:20;16.10;;;7.87;;
31482;SDS011;18103;52.246;8.052;2022-10-31T11:26:14;18.33;;;6.83;;
31482;SDS011;18103;52.246;8.052;2022-10-31T11:28:43;14.43;;;7.80;;
31482;SDS011;18103;52.246;8.052;2022-10-31T11:31:11;18.07;;;8.00;;
31482;SDS011;18103;52.246;8.052;2022-10-31T11:33:39;20.70;;;9.20;;
31482;SDS011;18103;52.246;8.052;2022-10-31T11:36:16;17.43;;;7.47;;
31482;SDS011;18103;52.246;8.052;2022-10-31T11:38:46;18.23;;;7.53;;
31482;SDS011;18103;52.246;8.052;2022-10-31T11:41:14;15.83;;;7.10;;
31482;SDS011;18103;52.246;8.052;2022-10-31T11:46:49;17.67;;;9.40;;
31482;SDS011;18103;52.246;8.052;2022-10-31T11:51:52;25.03;;;11.47;;
31482;SDS011;18103;52.246;8.052;2022-10-31T11:54:22;23.33;;;10.27;;
31482;SDS011;18103;52.246;8.052;2022-10-31T11:56:50;26.17;;;9.53;;
31482;SDS011;18103;52.246;8.052;2022-10-31T11:59:29;21.67;;;10.20;;
31482;SDS011;18103;52.246;8.052;2022-10-31T12:01:56;25.17;;;11.33;;
31482;SDS011;18103;52.246;8.052;2022-10-31T12:04:38;25.20;;;11.53;;
31482;SDS011;18103;52.246;8.052;2022-10-31T12:07:10;25.03;;;10.60;;
31482;SDS011;18103;52.246;8.052;2022-10-31T12:09:36;26.27;;;11.20;;
31482;SDS011;18103;52.246;8.052;2022-10-31T12:17:40;23.50;;;11.37;;
31482;SDS011;18103;52.246;8.052;2022-10-31T12:25:33;22.10;;;11.07;;
31482;SDS011;18103;52.246;8.052;2022-10-31T12:34:06;25.53;;;11.03;;
31482;SDS011;18103;52.246;8.052;2022-10-31T12:36:59;20.67;;;9.80;;
31482;SDS011;18103;52.246;8.052;2022-10-31T12:42:20;22.27;;;9.60;;
31482;SDS011;18103;52.246;8.052;2022-10-31T12:45:04;26.50;;;10.87;;
31482;SDS011;18103;52.246;8.052;2022-10-31T12:53:42;18.70;;;9.63;;
31482;SDS011;18103;52.246;8.052;2022-10-31T13:01:33;18.87;;;9.57;;
31482;SDS011;18103;52.246;8.052;2022-10-31T13:04:03;19.07;;;9.37;;
31482;SDS011;18103;52.246;8.052;2022-10-31T13:06:40;21.63;;;10.43;;
31482;SDS011;18103;52.246;8.052;2022-10-31T13:09:10;18.20;;;9.57;;
31482;SDS011;18103;52.246;8.052;2022-10-31T13:12:01;27.67;;;10.37;;
31482;SDS011;18103;52.246;8.052;2022-10-31T13:14:33;18.90;;;10.30;;
31482;SDS011;18103;52.246;8.052;2022-10-31T13:17:08;22.63;;;10.07;;
31482;SDS011;18103;52.246;8.052;2022-10-31T13:19:46;19.60;;;9.87;;
31482;SDS011;18103;52.246;8.052;2022-10-31T13:24:56;28.30;;;11.37;;
31482;SDS011;18103;52.246;8.052;2022-10-31T13:27:30;21.83;;;9.53;;
31482;SDS011;18103;52.246;8.052;2022-10-31T13:30:10;22.23;;;11.07;;
31482;SDS011;18103;52.246;8.052;2022-10-31T13:33:22;25.23;;;11.53;;
31482;SDS011;18103;52.246;8.052;2022-10-31T13:46:51;22.17;;;10.30;;
31482;SDS011;18103;52.246;8.052;2022-10-31T13:51:49;23.07;;;10.57;;
31482;SDS011;18103;52.246;8.052;2022-10-31T13:56:56;27.30;;;9.77;;
31482;SDS011;18103;52.246;8.052;2022-10-31T13:59:22;21.77;;;10.83;;
31482;SDS011;18103;52.246;8.052;2022-10-31T14:01:53;17.53;;;9.87;;
31482;SDS011;18103;52.246;8.052;2022-10-31T14:04:25;19.73;;;9.90;;
31482;SDS011;18103;52.246;8.052;2022-10-31T14:09:28;22.77;;;10.73;;
31482;SDS011;18103;52.246;8.052;2022-10-31T14:12:27;17.23;;;9.33;;
31482;SDS011;18103;52.246;8.052;2022-10-31T14:14:58;18.33;;;10.50;;
31482;SDS011;18103;52.246;8.052;2022-10-31T14:17:31;24.03;;;11.50;;
31482;SDS011;18103;52.246;8.052;2022-10-31T14:22:34;23.50;;;10.30;;
31482;SDS011;18103;52.246;8.052;2022-10-31T14:27:50;21.77;;;9.90;;
31482;SDS011;18103;52.246;8.052;2022-10-31T14:30:17;22.50;;;10.43;;
31482;SDS011;18103;52.246;8.052;2022-10-31T14:32:47;26.03;;;11.03;;
31482;SDS011;18103;52.246;8.052;2022-10-31T14:35:16;22.30;;;9.97;;
31482;SDS011;18103;52.246;8.052;2022-10-31T14:50:57;21.37;;;10.67;;
31482;SDS011;18103;52.246;8.052;2022-10-31T14:53:29;25.43;;;10.77;;
31482;SDS011;18103;52.246;8.052;2022-10-31T14:55:59;23.90;;;10.40;;
31482;SDS011;18103;52.246;8.052;2022-10-31T15:01:06;23.30;;;10.47;;
31482;SDS011;18103;52.246;8.052;2022-10-31T15:03:33;20.47;;;9.73;;
31482;SDS011;18103;52.246;8.052;2022-10-31T15:06:11;24.90;;;10.13;;
31482;SDS011;18103;52.246;8.052;2022-10-31T15:08:39;21.57;;;10.30;;
31482;SDS011;18103;52.246;8.052;2022-10-31T15:13:51;23.37;;;10.27;;
31482;SDS011;18103;52.246;8.052;2022-10-31T15:16:26;20.03;;;8.77;;
31482;SDS011;18103;52.246;8.052;2022-10-31T15:19:02;22.50;;;9.60;;
31482;SDS011;18103;52.246;8.052;2022-10-31T15:21:30;23.27;;;10.40;;
31482;SDS011;18103;52.246;8.052;2022-10-31T15:23:57;30.40;;;10.30;;
31482;SDS011;18103;52.246;8.052;2022-10-31T15:26:32;27.10;;;11.20;;
31482;SDS011;18103;52.246;8.052;2022-10-31T15:29:04;20.67;;;9.97;;
31482;SDS011;18103;52.246;8.052;2022-10-31T15:31:31;20.57;;;9.57;;
31482;SDS011;18103;52.246;8.052;2022-10-31T15:34:04;22.67;;;9.77;;
31482;SDS011;18103;52.246;8.052;2022-10-31T15:36:39;25.43;;;9.83;;
31482;SDS011;18103;52.246;8.052;2022-10-31T15:39:04;23.60;;;9.20;;
31482;SDS011;18103;52.246;8.052;2022-10-31T15:44:47;19.93;;;9.67;;
31482;SDS011;18103;52.246;8.052;2022-10-31T15:46:56;22.23;;;9.57;;
31482;SDS011;18103;52.246;8.052;2022-10-31T15:51:51;19.87;;;9.50;;
31482;SDS011;18103;52.246;8.052;2022-10-31T15:54:17;21.97;;;9.40;;
31482;SDS011;18103;52.246;8.052;2022-10-31T15:56:42;19.30;;;8.70;;
31482;SDS011;18103;52.246;8.052;2022-10-31T15:59:17;23.37;;;8.97;;
31482;SDS011;18103;52.246;8.052;2022-10-31T16:01:55;20.27;;;8.73;;
31482;SDS011;18103;52.246;8.052;2022-10-31T16:04:24;19.07;;;8.47;;
31482;SDS011;18103;52.246;8.052;2022-10-31T16:07:01;19.17;;;8.70;;
31482;SDS011;18103;52.246;8.052;2022-10-31T16:09:36;22.67;;;8.43;;
31482;SDS011;18103;52.246;8.052;2022-10-31T16:12:02;23.10;;;8.60;;
31482;SDS011;18103;52.246;8.052;2022-10-31T16:14:28;23.77;;;9.27;;
31482;SDS011;18103;52.246;8.052;2022-10-31T16:16:58;14.03;;;7.50;;
31482;SDS011;18103;52.246;8.052;2022-10-31T16:19:32;19.10;;;8.57;;
31482;SDS011;18103;52.246;8.052;2022-10-31T16:22:08;22.17;;;9.30;;
31482;SDS011;18103;52.246;8.052;2022-10-31T16:24:48;22.20;;;9.17;;
31482;SDS011;18103;52.246;8.052;2022-10-31T16:27:31;21.73;;;8.83;;
31482;SDS011;18103;52.246;8.052;2022-10-31T16:29:58;20.50;;;9.23;;
31482;SDS011;18103;52.246;8.052;2022-10-31T16:32:33;20.03;;;8.33;;
31482;SDS011;18103;52.246;8.052;2022-10-31T16:35:04;22.90;;;9.30;;
31482;SDS011;18103;52.246;8.052;2022-10-31T16:37:42;19.20;;;8.30;;
31482;SDS011;18103;52.246;8.052;2022-10-31T16:40:14;15.80;;;7.67;;
31482;SDS011;18103;52.246;8.052;2022-10-31T16:42:40;23.17;;;8.30;;
31482;SDS011;18103;52.246;8.052;2022-10-31T16:45:07;20.57;;;8.77;;
31482;SDS011;18103;52.246;8.052;2022-10-31T16:47:39;18.07;;;8.07;;
31482;SDS011;18103;52.246;8.052;2022-10-31T16:50:05;24.10;;;9.23;;
31482;SDS011;18103;52.246;8.052;2022-10-31T16:52:40;21.27;;;8.37;;
31482;SDS011;18103;52.246;8.052;2022-10-31T16:55:09;18.23;;;8.47;;
31482;SDS011;18103;52.246;8.052;2022-10-31T16:57:36;22.23;;;9.00;;
31482;SDS011;18103;52.246;8.052;2022-10-31T17:00:01;16.00;;;7.97;;
31482;SDS011;18103;52.246;8.052;2022-10-31T17:02:28;16.43;;;7.93;;
31482;SDS011;18103;52.246;8.052;2022-10-31T17:04:53;22.03;;;8.40;;
31482;SDS011;18103;52.246;8.052;2022-10-31T17:07:19;23.03;;;8.33;;
31482;SDS011;18103;52.246;8.052;2022-10-31T17:09:44;21.27;;;8.27;;
31482;SDS011;18103;52.246;8.052;2022-10-31T17:12:13;19.10;;;7.67;;
31482;SDS011;18103;52.246;8.052;2022-10-31T17:14:42;17.87;;;7.20;;